Aérodrome :
LOGIN :

S'inscrire | Disclaimer

   EN    FR    IT 

 










Légende :    VFR   VFR Marginal   IFR   IFR Intensif   IFR Très Intensif
Visi : 
Plafond : 
>= 8 km
>= 3000ft
5 à 8 km
1000 à 3000 ft
1500m à 5 km
500 à 1000 ft
800 à 1500m
200 à 500 ft
< 800m
< 200 ft
Symboles :   Orages  Brouillard  Fortes neiges  Fortes précipitations  Vent > 20 kt
SIGMETs :   Divers  Orages  Givrage  Turbulence  Onde Orograph.  Cendres Volcan.






- Altitude de l'aérodrome : 779 ft
- Code IATA : CMF


LFLB - Chambery / Aix-Les-Bains

DERNIER METAR :
  • 180000Z AUTO VRB01KT 7000 OVC005 01/01 Q1028

METARs EXPIRÉS :
  • 172330Z AUTO VRB02KT 9999 BKN005 BKN044 01/01 Q1027
  • 172300Z AUTO VRB03KT 9999 4900 SCT006 OVC045 02/01 Q1027
  • 172230Z AUTO 28003KT 7000 FEW008 BKN040 OVC046 02/01 Q1027
  • 172200Z AUTO VRB01KT 5000 BR FEW002 OVC035 01/01 Q1027
  • 172130Z AUTO 00000KT 6000 OVC033 01/01 Q1027

TAF TAF LFLB
Valide du 17 à 15h jusqu'au 18 à 15h UTC


171400Z 1715/1815 VRB05KT 9999 BKN035
TEMPO 1715/1717 4000 RA BKN012 OVC020
PROB30
TEMPO 1715/1717 2500 RASN BKN009
PROB40
TEMPO 1803/1808 3000 BR
BECMG 1810/1813 CAVOK



MET'MAP, la Météo Aéronautique d'un coup d'oeil ! - Copyright ORBIFLY Décembre 2007 - Disclaimer

ORBIFLY MET'MAP TEAM :

Programmation & Développement : Alexandra Zaïnal
Sur une idée originale de : Baudouin d'Aumeries
Assistance à la programmation : Marc-Olivier Méhu
Soutien technique & logistique : Manuel Goepfert

Contact : metmap@orbifly.com




SOURCES & CREDITS :

   NOAA